Time;durP1;ratioP1;P1;durP2;ratioP2;P2;SDS_P1;SDS_P2;PMS_P1;PMS_P2;Temp;Humidity;BMP_temperature;BMP_pressure;BME280_temperature;BME280_humidity;BME280_pressure;Samples;Min_cycle;Max_cycle;Signal;HPM_P1;HPM_P2
2022/10/28 00:01:12;;;;;;;3.53;2.60;;;;;;;12.56;60.88;98319.59;4966806;28;20195;-74
2022/10/28 00:03:43;;;;;;;4.63;2.80;;;;;;;12.49;61.62;98321.53;4967785;28;20190;-74
2022/10/28 00:06:15;;;;;;;4.73;2.90;;;;;;;12.53;61.30;98312.75;4968315;28;20191;-74
2022/10/28 00:08:42;;;;;;;3.30;2.97;;;;;;;12.57;60.97;98319.53;4967016;28;20248;-75
2022/10/28 00:11:15;;;;;;;3.23;2.93;;;;;;;12.48;60.74;98322.47;4968364;28;20194;-74
2022/10/28 00:13:43;;;;;;;5.10;3.20;;;;;;;12.41;61.36;98318.34;4967000;28;20191;-74
2022/10/28 00:16:22;;;;;;;6.03;3.37;;;;;;;12.41;61.52;98317.50;4968555;28;20192;-75
2022/10/28 00:18:51;;;;;;;12.20;4.17;;;;;;;12.49;60.84;98308.56;4967648;28;20732;-75
2022/10/28 00:21:24;;;;;;;6.23;3.37;;;;;;;12.40;61.10;98310.63;4967328;28;20193;-74
2022/10/28 00:23:51;;;;;;;5.33;3.53;;;;;;;12.26;61.27;98313.66;4966764;28;20623;-75
2022/10/28 00:26:22;;;;;;;6.50;4.30;;;;;;;12.07;62.26;98307.34;4966590;28;20197;-74
2022/10/28 00:28:57;;;;;;;6.13;4.30;;;;;;;12.15;62.31;98301.03;4968127;28;20231;-75
2022/10/28 00:31:26;;;;;;;11.10;4.77;;;;;;;12.25;62.35;98305.03;4966951;28;20194;-75
2022/10/28 00:33:53;;;;;;;7.17;4.63;;;;;;;12.26;61.99;98306.69;4967818;28;20194;-74
2022/10/28 00:36:23;;;;;;;6.70;3.63;;;;;;;12.20;62.27;98321.63;4969518;28;20186;-76
2022/10/28 00:38:52;;;;;;;6.90;4.80;;;;;;;11.70;63.13;98314.56;4970469;28;20794;-75
2022/10/28 00:41:22;;;;;;;8.47;5.13;;;;;;;11.03;65.93;98313.84;4954417;28;20194;-74
2022/10/28 00:43:52;;;;;;;9.97;5.40;;;;;;;10.98;66.61;98315.72;4970082;28;20186;-75
2022/10/28 00:46:44;;;;;;;6.87;5.20;;;;;;;10.97;66.42;98301.06;4970201;28;20680;-75
2022/10/28 00:49:16;;;;;;;9.47;6.30;;;;;;;10.82;67.23;98313.59;4971019;28;20248;-75
2022/10/28 00:51:46;;;;;;;10.73;6.60;;;;;;;10.59;68.09;98314.19;4970405;28;20587;-75
2022/10/28 00:54:15;;;;;;;10.43;6.13;;;;;;;10.51;68.95;98313.50;4970092;28;20890;-75
2022/10/28 00:56:47;;;;;;;10.17;6.67;;;;;;;10.47;69.22;98315.31;4969797;28;20204;-75
2022/10/28 00:59:28;;;;;;;9.67;6.00;;;;;;;10.54;68.85;98305.66;4971320;28;20182;-75
2022/10/28 01:01:55;;;;;;;7.70;5.77;;;;;;;10.37;69.64;98306.09;4970501;28;20195;-75
2022/10/28 01:04:22;;;;;;;7.60;6.30;;;;;;;10.39;69.88;98313.81;4969040;28;20209;-76
2022/10/28 01:06:50;;;;;;;10.30;5.47;;;;;;;10.28;70.52;98300.28;4971015;28;20594;-75
2022/10/28 01:09:17;;;;;;;7.33;4.40;;;;;;;10.35;70.66;98309.59;4969523;28;20234;-75
2022/10/28 01:11:59;;;;;;;7.70;4.67;;;;;;;10.29;70.45;98296.81;4971014;28;20701;-74
2022/10/28 01:15:01;;;;;;;9.50;4.30;;;;;;;10.31;70.95;98305.38;4969560;28;20609;-74
2022/10/28 01:17:41;;;;;;;9.27;4.80;;;;;;;10.32;71.10;98307.09;4970088;28;20228;-76
2022/10/28 01:20:20;;;;;;;8.77;4.87;;;;;;;10.39;71.25;98298.28;4970918;28;20193;-75
2022/10/28 01:22:50;;;;;;;9.13;5.13;;;;;;;10.45;70.91;98295.53;4969194;28;20203;-77
2022/10/28 01:25:20;;;;;;;6.63;4.83;;;;;;;10.35;71.27;98296.66;4970851;28;20283;-74
2022/10/28 01:27:59;;;;;;;9.17;4.37;;;;;;;10.52;71.03;98297.09;4969539;28;20644;-75
2022/10/28 01:30:34;;;;;;;6.70;4.50;;;;;;;10.69;70.25;98296.66;4970020;28;20188;-75
2022/10/28 01:33:20;;;;;;;6.33;4.07;;;;;;;10.76;69.54;98287.84;4970728;28;20191;-78
2022/10/28 01:36:09;;;;;;;8.43;4.67;;;;;;;10.76;69.71;98282.66;4968962;28;20196;-76
2022/10/28 01:38:50;;;;;;;6.80;4.30;;;;;;;10.69;69.99;98291.47;4970433;28;20186;-76
2022/10/28 01:41:22;;;;;;;6.03;4.40;;;;;;;10.65;70.00;98294.13;4970242;28;20202;-76
2022/10/28 01:44:04;;;;;;;6.13;4.40;;;;;;;10.72;69.99;98287.06;4968936;28;20192;-76
2022/10/28 01:46:50;;;;;;;6.37;4.17;;;;;;;10.79;69.63;98293.78;4970374;28;20602;-76
2022/10/28 01:50:05;;;;;;;5.47;4.03;;;;;;;10.98;69.13;98300.19;4968497;28;20216;-77
2022/10/28 01:52:32;;;;;;;9.00;4.57;;;;;;;11.13;68.63;98302.31;4955492;28;20602;-76
2022/10/28 01:55:09;;;;;;;7.47;4.43;;;;;;;11.25;67.82;98301.97;4970210;28;20196;-77
2022/10/28 01:57:38;;;;;;;9.07;4.10;;;;;;;11.36;67.69;98306.88;4968748;28;20205;-75
2022/10/28 02:00:06;;;;;;;6.60;4.17;;;;;;;11.51;66.50;98306.44;4952872;28;20199;-76
2022/10/28 02:02:39;;;;;;;6.37;4.00;;;;;;;11.52;66.40;98291.72;4969968;28;20188;-77
2022/10/28 02:05:35;;;;;;;5.60;4.30;;;;;;;11.59;66.34;98299.28;4969220;28;20213;-77
2022/10/28 02:08:20;;;;;;;8.10;4.30;;;;;;;11.58;65.56;98297.56;4963599;28;20200;-76
2022/10/28 02:10:59;;;;;;;9.93;4.47;;;;;;;11.48;65.84;98306.50;4968431;28;20209;-75
2022/10/28 02:13:45;;;;;;;8.77;4.73;;;;;;;11.56;66.43;98307.13;4969606;28;20193;-75
2022/10/28 02:16:24;;;;;;;7.47;3.93;;;;;;;11.53;65.75;98303.78;4970066;28;20191;-75
2022/10/28 02:19:13;;;;;;;6.80;4.73;;;;;;;11.45;65.25;98301.44;4950903;28;20639;-75
2022/10/28 02:22:10;;;;;;;8.20;4.20;;;;;;;11.10;66.84;98299.84;4969880;28;20246;-79
2022/10/28 02:24:56;;;;;;;6.53;4.00;;;;;;;11.19;66.94;98301.34;4969890;28;20190;-76
2022/10/28 02:27:41;;;;;;;10.40;4.60;;;;;;;11.13;66.97;98304.91;4968191;28;20702;-75
2022/10/28 02:30:17;;;;;;;6.77;3.80;;;;;;;11.18;66.85;98302.22;4969605;28;20788;-76
2022/10/28 02:32:49;;;;;;;6.10;3.80;;;;;;;11.11;67.03;98295.47;4968713;28;20190;-75
2022/10/28 02:35:42;;;;;;;7.70;4.10;;;;;;;11.02;67.16;98308.72;4969011;28;20185;-75
2022/10/28 02:38:32;;;;;;;6.13;3.83;;;;;;;10.73;68.33;98306.91;4969369;28;20200;-75
2022/10/28 02:41:05;;;;;;;6.73;4.17;;;;;;;10.47;69.49;98304.97;4968156;28;20197;-75
2022/10/28 02:43:35;;;;;;;12.20;6.13;;;;;;;10.21;70.26;98302.19;4969177;28;20319;-75
2022/10/28 02:46:03;;;;;;;6.73;4.00;;;;;;;10.19;70.56;98303.94;4968917;28;20189;-75
2022/10/28 02:48:47;;;;;;;10.27;4.43;;;;;;;10.27;70.35;98314.97;4968142;28;20647;-77
2022/10/28 02:51:28;;;;;;;7.73;4.57;;;;;;;10.09;71.08;98309.34;4969315;28;20685;-75
2022/10/28 02:54:04;;;;;;;9.47;4.63;;;;;;;9.96;71.73;98318.25;4967918;28;20192;-75
2022/10/28 02:56:38;;;;;;;6.93;3.90;;;;;;;9.90;72.08;98313.22;4969129;28;20690;-75
2022/10/28 02:59:12;;;;;;;7.37;4.33;;;;;;;9.84;71.81;98304.75;4968600;28;20196;-75
2022/10/28 03:01:39;;;;;;;8.63;4.83;;;;;;;9.94;72.36;98309.69;4967641;28;20312;-75
2022/10/28 03:04:06;;;;;;;9.27;4.90;;;;;;;9.90;72.09;98310.66;4968949;28;20204;-75
2022/10/28 03:06:33;;;;;;;6.83;4.63;;;;;;;9.95;72.03;98308.81;4967515;28;20716;-75
2022/10/28 03:09:00;;;;;;;5.63;4.73;;;;;;;9.76;72.24;98309.25;4969049;28;20230;-75
2022/10/28 03:11:27;;;;;;;5.87;4.10;;;;;;;9.70;73.18;98326.63;4966234;28;20303;-75
2022/10/28 03:13:53;;;;;;;5.77;4.13;;;;;;;9.68;73.66;98321.50;4969150;28;20197;-75
2022/10/28 03:16:21;;;;;;;7.10;4.70;;;;;;;9.70;73.53;98316.28;4968556;28;20196;-74
2022/10/28 03:18:48;;;;;;;8.70;4.53;;;;;;;9.61;74.11;98327.66;4966258;28;20704;-74
2022/10/28 03:21:15;;;;;;;5.93;4.33;;;;;;;9.55;74.56;98326.94;4968850;28;20999;-74
2022/10/28 03:23:41;;;;;;;9.77;5.67;;;;;;;9.62;74.17;98324.19;4967320;28;20200;-74
2022/10/28 03:26:08;;;;;;;9.33;4.23;;;;;;;9.53;74.38;98321.81;4968771;28;20221;-74
2022/10/28 03:28:35;;;;;;;7.20;4.77;;;;;;;9.72;74.39;98330.03;4966008;28;20199;-75
2022/10/28 03:31:02;;;;;;;10.43;5.07;;;;;;;9.65;75.01;98329.31;4968796;28;20283;-75
2022/10/28 03:33:29;;;;;;;7.80;4.50;;;;;;;9.61;74.65;98322.50;4967955;28;20185;-75
2022/10/28 03:35:56;;;;;;;8.73;4.93;;;;;;;9.70;74.62;98331.81;4967955;28;20185;-74
2022/10/28 03:38:23;;;;;;;7.20;4.63;;;;;;;9.67;75.47;98322.38;4968619;28;20189;-75
2022/10/28 03:40:50;;;;;;;6.70;4.83;;;;;;;9.66;75.33;98320.69;4967196;28;20219;-75
2022/10/28 03:43:17;;;;;;;8.20;4.53;;;;;;;9.63;75.28;98330.22;4967296;28;20579;-74
2022/10/28 03:45:44;;;;;;;7.53;4.93;;;;;;;9.69;75.13;98330.09;4967029;28;20622;-74
2022/10/28 03:48:11;;;;;;;8.60;4.50;;;;;;;9.74;75.20;98329.13;4968749;28;20189;-74
2022/10/28 03:50:38;;;;;;;5.53;4.27;;;;;;;9.75;75.49;98329.94;4967524;28;20235;-75
2022/10/28 03:53:05;;;;;;;6.40;3.77;;;;;;;9.67;75.22;98332.72;4968009;28;21205;-74
2022/10/28 03:55:32;;;;;;;7.77;4.40;;;;;;;9.74;74.91;98328.25;4950255;28;20725;-74
2022/10/28 03:58:02;;;;;;;6.53;4.73;;;;;;;9.79;74.74;98331.56;4966789;28;20243;-74
2022/10/28 04:00:29;;;;;;;6.90;3.90;;;;;;;9.95;74.66;98332.09;4968647;28;20247;-74
2022/10/28 04:02:56;;;;;;;5.57;4.20;;;;;;;10.12;73.52;98337.78;4966712;28;20196;-75
2022/10/28 04:05:23;;;;;;;6.20;5.00;;;;;;;10.16;72.90;98326.47;4968374;28;20599;-75
2022/10/28 04:07:51;;;;;;;8.73;4.80;;;;;;;10.18;72.73;98325.53;4949418;28;20224;-75
2022/10/28 04:10:18;;;;;;;8.87;4.63;;;;;;;9.95;73.65;98316.59;4968012;28;20220;-75
2022/10/28 04:12:45;;;;;;;9.73;4.53;;;;;;;9.97;73.27;98327.75;4971733;28;20192;-75
2022/10/28 04:15:12;;;;;;;7.37;4.77;;;;;;;10.00;73.39;98325.94;4970815;28;20185;-75
2022/10/28 04:17:39;;;;;;;7.80;4.70;;;;;;;9.92;73.45;98327.00;4970397;28;20240;-76
2022/10/28 04:20:06;;;;;;;13.43;5.17;;;;;;;10.04;72.65;98324.13;4968949;28;20631;-75
2022/10/28 04:22:33;;;;;;;12.50;5.10;;;;;;;10.11;72.63;98321.41;4970667;28;20203;-75
2022/10/28 04:25:00;;;;;;;9.73;5.00;;;;;;;10.13;72.14;98326.53;4970207;28;20275;-76
2022/10/28 04:27:28;;;;;;;11.97;5.70;;;;;;;10.20;71.81;98328.09;4970280;28;20201;-76
2022/10/28 04:29:55;;;;;;;9.60;5.43;;;;;;;10.12;71.75;98324.84;4971171;28;20894;-76
2022/10/28 04:32:22;;;;;;;12.00;4.53;;;;;;;9.80;71.55;98269.47;4970741;28;20197;-75
2022/10/28 04:34:49;;;;;;;16.97;5.80;;;;;;;10.00;71.29;98331.09;4971639;28;20188;-75
2022/10/28 04:37:16;;;;;;;10.50;5.43;;;;;;;9.72;72.44;98319.69;4969918;28;20227;-75
2022/10/28 04:39:46;;;;;;;8.83;5.23;;;;;;;9.77;72.52;98330.75;4970494;28;20204;-75
2022/10/28 04:42:13;;;;;;;10.57;5.87;;;;;;;9.65;73.33;98331.91;4969275;28;20193;-76
2022/10/28 04:44:41;;;;;;;10.63;5.47;;;;;;;9.43;73.23;98320.31;4970838;28;20211;-75
2022/10/28 04:47:08;;;;;;;13.53;5.77;;;;;;;9.49;73.40;98316.72;4970552;28;20256;-76
2022/10/28 04:49:35;;;;;;;9.93;5.20;;;;;;;9.55;73.79;98332.13;4970083;28;20216;-75
2022/10/28 04:52:04;;;;;;;14.00;6.00;;;;;;;9.55;74.13;98325.22;4969680;28;20197;-75
2022/10/28 04:54:31;;;;;;;8.27;5.60;;;;;;;9.79;73.00;98327.25;4969539;28;20204;-76
2022/10/28 04:56:58;;;;;;;10.03;4.83;;;;;;;9.94;72.48;98327.81;4971248;28;20695;-75
2022/10/28 04:59:25;;;;;;;11.00;5.23;;;;;;;9.96;71.85;98339.81;4969351;28;20580;-76
2022/10/28 05:01:52;;;;;;;9.97;5.30;;;;;;;10.10;71.15;98332.63;4953575;28;20192;-75
2022/10/28 05:04:19;;;;;;;10.93;5.70;;;;;;;10.28;70.68;98336.53;4970177;28;20194;-75
2022/10/28 05:06:46;;;;;;;11.33;5.53;;;;;;;10.14;71.13;98328.25;4970170;28;20717;-75
2022/10/28 05:09:13;;;;;;;15.20;5.67;;;;;;;10.12;71.16;98323.09;4970736;28;20216;-75
2022/10/28 05:11:40;;;;;;;12.77;6.27;;;;;;;10.25;70.76;98336.59;4969323;28;20193;-77
2022/10/28 05:14:07;;;;;;;10.13;5.60;;;;;;;10.38;70.36;98338.00;4969508;28;20327;-75
2022/10/28 05:16:34;;;;;;;13.07;6.50;;;;;;;10.49;69.45;98336.00;4968911;28;20735;-76
2022/10/28 05:19:01;;;;;;;7.07;5.40;;;;;;;10.44;69.97;98343.03;4970683;28;20208;-75
2022/10/28 05:21:28;;;;;;;8.37;5.30;;;;;;;10.44;69.52;98343.91;4968136;28;20205;-76
2022/10/28 05:23:55;;;;;;;10.60;5.97;;;;;;;10.57;69.52;98342.69;4970126;28;20193;-75
2022/10/28 05:26:22;;;;;;;10.90;6.40;;;;;;;10.70;69.05;98351.00;4980393;28;20200;-76
2022/10/28 05:28:49;;;;;;;11.50;6.20;;;;;;;10.90;68.42;98351.34;4988737;28;20192;-76
2022/10/28 05:31:17;;;;;;;9.20;6.47;;;;;;;10.85;68.63;98355.81;4975101;28;20208;-75
2022/10/28 05:33:44;;;;;;;10.60;6.13;;;;;;;10.92;68.37;98341.78;4968820;28;20228;-75
2022/10/28 05:36:10;;;;;;;9.83;6.27;;;;;;;11.10;68.22;98351.69;4970478;28;20213;-75
2022/10/28 05:38:39;;;;;;;10.60;5.60;;;;;;;11.05;68.13;98344.91;4968815;28;20185;-75
2022/10/28 05:41:05;;;;;;;9.87;5.93;;;;;;;11.05;67.83;98353.53;4968624;28;20195;-76
2022/10/28 05:43:32;;;;;;;7.10;5.40;;;;;;;10.78;68.80;98349.06;4968880;28;20209;-75
2022/10/28 05:46:01;;;;;;;7.60;5.03;;;;;;;10.42;70.95;98350.84;4969285;28;20610;-77
2022/10/28 05:48:28;;;;;;;10.07;5.23;;;;;;;10.32;71.80;98356.28;4970324;28;20197;-78
2022/10/28 05:50:55;;;;;;;8.23;4.87;;;;;;;10.32;72.28;98359.75;4951278;28;20221;-75
2022/10/28 05:53:22;;;;;;;8.23;5.03;;;;;;;10.25;72.97;98362.47;4970117;28;20200;-77
2022/10/28 05:55:49;;;;;;;9.03;4.90;;;;;;;10.39;73.21;98366.47;4968705;28;20190;-76
2022/10/28 05:58:16;;;;;;;10.60;5.57;;;;;;;10.40;73.07;98362.13;4970178;28;20197;-78
2022/10/28 06:00:42;;;;;;;9.57;4.90;;;;;;;10.45;73.89;98370.63;4969392;28;20207;-71
2022/10/28 06:03:11;;;;;;;9.07;5.27;;;;;;;10.73;73.46;98366.50;4969333;28;20279;-76
2022/10/28 06:05:41;;;;;;;6.33;4.57;;;;;;;10.56;72.26;98368.63;4970052;28;20241;-74
2022/10/28 06:08:12;;;;;;;6.50;5.13;;;;;;;10.76;71.70;98369.00;4968554;28;20196;-76
2022/10/28 06:10:41;;;;;;;9.53;4.60;;;;;;;10.58;72.47;98366.88;4970326;28;20327;-75
2022/10/28 06:13:08;;;;;;;8.50;5.30;;;;;;;10.62;72.12;98373.66;4968875;28;20308;-76
2022/10/28 06:15:35;;;;;;;10.20;5.40;;;;;;;10.77;71.72;98370.72;4969596;28;20200;-76
2022/10/28 06:18:02;;;;;;;7.93;5.90;;;;;;;10.92;71.39;98367.69;4968606;28;20638;-75
2022/10/28 06:20:29;;;;;;;9.30;5.17;;;;;;;11.13;70.94;98376.66;4968303;28;20279;-75
2022/10/28 06:22:56;;;;;;;9.90;5.93;;;;;;;11.27;70.17;98370.22;4969400;28;20198;-76
2022/10/28 06:25:25;;;;;;;10.63;5.63;;;;;;;11.41;70.35;98378.50;4967822;28;20273;-76
2022/10/28 06:28:01;;;;;;;10.53;5.40;;;;;;;11.51;69.71;98383.41;4969241;28;20647;-75
2022/10/28 06:30:28;;;;;;;12.87;7.03;;;;;;;11.62;69.24;98379.63;4965925;28;20280;-76
2022/10/28 06:32:56;;;;;;;10.80;7.40;;;;;;;11.76;68.43;98374.06;4968795;28;20197;-76
2022/10/28 06:35:23;;;;;;;12.67;6.73;;;;;;;11.89;68.29;98375.41;4968437;28;20260;-76
2022/10/28 06:37:54;;;;;;;11.83;6.87;;;;;;;11.82;68.23;98379.94;4967605;28;20196;-76
2022/10/28 06:40:23;;;;;;;15.77;8.00;;;;;;;11.93;68.05;98383.03;4967418;28;20184;-76
2022/10/28 06:43:02;;;;;;;11.77;7.47;;;;;;;12.02;67.80;98387.13;4967188;28;20262;-76
2022/10/28 06:45:31;;;;;;;15.27;7.23;;;;;;;12.14;67.92;98378.94;4968691;28;20299;-76
2022/10/28 06:48:00;;;;;;;10.03;7.50;;;;;;;12.22;67.31;98384.75;4966380;28;20197;-76
2022/10/28 06:50:29;;;;;;;12.37;7.87;;;;;;;12.37;67.17;98378.25;4968364;28;20230;-76
2022/10/28 06:52:57;;;;;;;15.77;7.87;;;;;;;12.62;66.30;98379.16;4967140;28;20283;-77
2022/10/28 06:55:25;;;;;;;13.77;7.93;;;;;;;12.87;65.87;98382.66;4967008;28;20235;-76
2022/10/28 06:57:53;;;;;;;14.73;8.23;;;;;;;13.12;64.57;98380.97;4967907;28;20202;-76
2022/10/28 07:00:20;;;;;;;17.83;10.97;;;;;;;13.19;64.41;98382.44;4965430;28;20279;-76
2022/10/28 07:02:52;;;;;;;17.93;9.87;;;;;;;13.13;64.68;98382.66;4951029;28;20198;-75
2022/10/28 07:05:20;;;;;;;20.77;11.47;;;;;;;13.24;64.42;98377.06;4966910;28;20190;-76
2022/10/28 07:07:47;;;;;;;26.23;14.30;;;;;;;13.42;64.00;98373.81;4967883;28;20265;-76
2022/10/28 07:10:14;;;;;;;13.53;9.57;;;;;;;13.50;63.96;98372.66;4966380;28;20306;-74
2022/10/28 07:12:41;;;;;;;16.57;9.90;;;;;;;13.47;63.87;98364.97;4966547;28;20201;-75
2022/10/28 07:15:09;;;;;;;23.70;13.63;;;;;;;13.83;63.04;98365.34;4966550;28;20909;-75
2022/10/28 07:17:36;;;;;;;21.23;11.87;;;;;;;14.02;62.18;98365.50;4966181;28;20262;-76
2022/10/28 07:20:03;;;;;;;16.87;11.67;;;;;;;14.05;61.98;98361.03;4967767;28;20227;-76
2022/10/28 07:22:30;;;;;;;16.83;10.90;;;;;;;14.26;61.49;98370.63;4966373;28;20219;-76
2022/10/28 07:24:57;;;;;;;16.97;11.20;;;;;;;14.45;60.91;98376.84;4968060;28;20680;-76
2022/10/28 07:27:24;;;;;;;12.33;7.73;;;;;;;14.47;61.12;98367.19;4967832;28;20200;-75
2022/10/28 07:29:51;;;;;;;14.70;9.43;;;;;;;14.59;60.78;98353.66;4964851;28;20723;-76
2022/10/28 07:32:18;;;;;;;23.23;7.83;;;;;;;14.85;60.44;98364.78;4966138;28;20299;-76
2022/10/28 07:34:45;;;;;;;16.10;8.23;;;;;;;14.95;60.00;98360.88;4932385;28;20196;-75
2022/10/28 07:37:12;;;;;;;11.23;7.03;;;;;;;15.13;59.78;98363.56;4967094;28;20287;-76
2022/10/28 07:39:38;;;;;;;15.87;8.90;;;;;;;15.30;59.46;98365.44;4964568;28;20223;-75
2022/10/28 07:42:05;;;;;;;15.37;7.13;;;;;;;15.43;59.01;98357.03;4967532;28;20207;-75
2022/10/28 07:44:32;;;;;;;11.50;6.67;;;;;;;15.55;58.48;98362.63;4967114;28;20199;-76
2022/10/28 07:46:59;;;;;;;11.83;6.40;;;;;;;15.76;58.27;98366.91;4970935;28;20671;-75
2022/10/28 07:49:26;;;;;;;10.03;5.67;;;;;;;15.79;58.30;98351.06;4970320;28;20200;-76
2022/10/28 07:51:53;;;;;;;16.93;5.93;;;;;;;15.99;57.94;98359.69;4970001;28;20229;-76
2022/10/28 07:54:20;;;;;;;10.93;5.27;;;;;;;16.14;57.15;98352.91;4970033;28;20215;-76
2022/10/28 07:56:47;;;;;;;11.77;5.90;;;;;;;16.32;56.68;98340.75;4969812;28;20188;-76
2022/10/28 07:59:14;;;;;;;11.30;5.90;;;;;;;16.50;56.26;98337.28;4969675;28;20194;-75
2022/10/28 08:01:41;;;;;;;9.83;6.27;;;;;;;16.66;56.31;98354.75;4952772;28;20216;-76
2022/10/28 08:04:11;;;;;;;13.87;6.30;;;;;;;16.80;55.31;98327.91;4970846;28;20230;-76
2022/10/28 08:06:37;;;;;;;14.63;6.67;;;;;;;17.03;54.80;98348.53;4969980;28;20203;-76
2022/10/28 08:09:07;;;;;;;7.73;4.57;;;;;;;17.10;54.58;98349.94;4969729;28;20185;-76
2022/10/28 08:11:34;;;;;;;10.27;5.63;;;;;;;16.92;54.52;98324.66;4970947;28;20289;-75
2022/10/28 08:14:01;;;;;;;5.37;3.93;;;;;;;17.09;54.54;98346.47;4968062;28;20660;-76
2022/10/28 08:16:28;;;;;;;8.00;4.17;;;;;;;17.00;54.42;98340.84;4971102;28;20195;-76
2022/10/28 08:18:55;;;;;;;10.13;4.70;;;;;;;17.12;54.22;98350.69;4969745;28;20192;-76
2022/10/28 08:21:23;;;;;;;9.47;4.80;;;;;;;17.13;54.49;98351.53;4970688;28;20749;-76
2022/10/28 08:23:50;;;;;;;9.43;5.40;;;;;;;17.24;53.51;98338.75;4971028;28;20600;-77
2022/10/28 08:26:17;;;;;;;9.97;4.53;;;;;;;17.37;53.30;98343.25;4969509;28;20615;-76
2022/10/28 08:28:44;;;;;;;8.63;4.43;;;;;;;17.46;52.92;98340.16;4970697;28;20204;-76
2022/10/28 08:31:11;;;;;;;11.13;5.00;;;;;;;17.53;52.67;98340.72;4969190;28;20233;-76
2022/10/28 08:33:41;;;;;;;9.73;5.47;;;;;;;17.62;52.04;98341.06;4969431;28;20198;-76
2022/10/28 08:36:10;;;;;;;7.17;4.60;;;;;;;17.66;51.30;98345.22;4969394;28;20191;-76
2022/10/28 08:38:38;;;;;;;5.20;3.00;;;;;;;17.70;50.58;98341.50;4969078;28;20203;-77
2022/10/28 08:41:43;;;;;;;4.93;3.17;;;;;;;17.67;50.98;98344.31;4970707;28;20200;-76
2022/10/28 08:44:29;;;;;;;5.27;4.57;;;;;;;17.72;50.68;98342.28;4969277;28;20241;-79
2022/10/28 08:47:08;;;;;;;9.47;4.93;;;;;;;17.85;50.66;98345.09;4968777;28;20275;-77
2022/10/28 08:49:39;;;;;;;7.73;4.47;;;;;;;18.01;48.85;98332.00;4967921;28;20684;-77
2022/10/28 08:52:23;;;;;;;6.43;4.50;;;;;;;18.27;48.18;98334.88;4969118;28;20205;-78
2022/10/28 08:54:56;;;;;;;7.03;4.30;;;;;;;18.39;47.64;98339.44;4970193;28;20239;-78
2022/10/28 08:57:59;;;;;;;6.20;3.43;;;;;;;18.54;46.40;98335.97;4967579;28;20269;-77
2022/10/28 09:00:30;;;;;;;7.30;3.10;;;;;;;18.64;46.45;98336.28;4968133;28;20216;-77
2022/10/28 09:03:11;;;;;;;5.90;3.63;;;;;;;18.47;46.50;98331.16;4952839;28;20203;-77
2022/10/28 09:05:41;;;;;;;6.47;3.53;;;;;;;18.33;46.34;98317.94;4968791;28;20752;-77
2022/10/28 09:08:22;;;;;;;10.37;5.07;;;;;;;18.57;46.25;98321.81;4970148;28;20203;-77
2022/10/28 09:10:59;;;;;;;7.27;3.70;;;;;;;18.81;45.70;98320.44;4968923;28;20231;-78
2022/10/28 09:13:40;;;;;;;4.37;3.30;;;;;;;18.92;45.63;98318.00;4969953;28;20194;-76
2022/10/28 09:16:13;;;;;;;7.90;3.77;;;;;;;19.10;44.88;98316.91;4970705;28;20272;-77
2022/10/28 09:18:52;;;;;;;15.00;3.87;;;;;;;19.17;44.37;98318.25;4968238;28;20326;-78
2022/10/28 09:21:28;;;;;;;13.80;4.00;;;;;;;19.34;44.35;98320.75;4970111;28;20279;-76
2022/10/28 09:23:58;;;;;;;11.47;4.60;;;;;;;19.44;44.77;98315.75;4968957;28;20188;-78
2022/10/28 09:26:45;;;;;;;7.47;3.23;;;;;;;19.49;43.77;98308.47;4968071;28;20609;-78
2022/10/28 09:29:20;;;;;;;9.83;4.83;;;;;;;19.58;43.37;98313.13;4969936;28;20206;-77
2022/10/28 09:31:57;;;;;;;12.90;3.97;;;;;;;19.60;43.35;98299.91;4968356;28;20281;-78
2022/10/28 09:34:33;;;;;;;8.20;2.80;;;;;;;19.63;43.30;98299.72;4968641;28;20207;-78
2022/10/28 09:37:16;;;;;;;9.47;3.70;;;;;;;19.62;43.26;98287.53;4968838;28;20765;-77
2022/10/28 09:39:48;;;;;;;9.27;3.50;;;;;;;19.47;43.90;98273.56;4968746;28;20287;-76
2022/10/28 09:42:25;;;;;;;6.13;2.77;;;;;;;19.63;43.30;98279.53;4952057;28;20183;-76
2022/10/28 09:44:57;;;;;;;14.07;3.80;;;;;;;19.79;42.98;98280.25;4967633;28;20202;-75
2022/10/28 09:47:30;;;;;;;4.20;2.77;;;;;;;19.72;42.93;98286.00;4969764;28;20695;-75
2022/10/28 09:50:02;;;;;;;4.50;2.70;;;;;;;19.67;42.78;98264.41;4968730;28;20539;-78
2022/10/28 09:52:35;;;;;;;4.50;2.43;;;;;;;19.72;42.37;98262.34;4951306;28;20191;-77
2022/10/28 09:55:14;;;;;;;10.07;3.13;;;;;;;19.75;42.83;98270.03;4968378;28;20201;-77
2022/10/28 09:57:42;;;;;;;7.33;3.37;;;;;;;19.81;42.47;98253.88;4967933;28;20192;-78
2022/10/28 10:00:15;;;;;;;5.93;2.40;;;;;;;19.66;42.44;98260.94;4969346;28;20211;-79
2022/10/28 10:02:43;;;;;;;5.77;2.83;;;;;;;19.77;42.85;98265.50;4968137;28;20567;-76
2022/10/28 10:05:19;;;;;;;4.70;2.60;;;;;;;20.01;41.90;98261.34;4968742;28;20213;-76
2022/10/28 10:07:51;;;;;;;3.17;2.87;;;;;;;19.93;41.99;98255.72;4969115;28;20184;-79
2022/10/28 10:10:49;;;;;;;5.60;3.13;;;;;;;20.11;41.87;98254.56;4966783;28;20196;-77
2022/10/28 10:13:20;;;;;;;9.00;2.83;;;;;;;20.18;42.05;98255.81;4969221;28;20181;-79
2022/10/28 10:15:52;;;;;;;11.03;3.57;;;;;;;20.31;41.62;98246.25;4966936;28;20187;-80
2022/10/28 10:18:27;;;;;;;8.73;3.77;;;;;;;20.49;40.71;98250.28;4968568;28;20220;-78
2022/10/28 10:20:59;;;;;;;5.77;2.30;;;;;;;20.34;40.77;98247.81;4969154;28;20203;-77
2022/10/28 10:23:32;;;;;;;3.07;2.70;;;;;;;20.26;41.18;98243.91;4949997;28;20274;-77
2022/10/28 10:26:11;;;;;;;8.43;3.17;;;;;;;20.42;40.86;98237.63;4968922;28;20212;-77
2022/10/28 10:28:46;;;;;;;4.13;3.00;;;;;;;20.62;40.36;98245.91;4966417;28;20687;-77
2022/10/28 10:31:22;;;;;;;4.67;2.40;;;;;;;20.69;40.19;98252.41;4968638;28;20219;-77
2022/10/28 10:33:52;;;;;;;4.10;2.73;;;;;;;20.74;40.21;98245.06;4967441;28;20192;-77
2022/10/28 10:36:22;;;;;;;4.97;3.23;;;;;;;20.68;40.06;98245.50;4949735;28;20201;-77
2022/10/28 10:38:53;;;;;;;5.23;3.10;;;;;;;20.77;40.03;98234.31;4968857;28;20251;-78
2022/10/28 10:41:42;;;;;;;10.00;4.90;;;;;;;20.82;40.01;98241.91;4966996;28;20188;-77
2022/10/28 10:44:21;;;;;;;6.17;2.80;;;;;;;20.83;39.71;98238.34;4968415;28;20205;-79
2022/10/28 10:47:03;;;;;;;4.73;2.70;;;;;;;20.88;39.48;98226.53;4967486;28;20231;-78
2022/10/28 10:49:34;;;;;;;3.73;2.47;;;;;;;20.88;39.74;98223.91;4966878;28;20223;-77
2022/10/28 10:52:06;;;;;;;4.93;2.70;;;;;;;20.91;39.63;98210.53;4967001;28;20291;-77
2022/10/28 10:54:36;;;;;;;5.43;3.20;;;;;;;20.86;39.86;98217.91;4965442;28;20201;-79
2022/10/28 10:57:16;;;;;;;3.43;2.63;;;;;;;20.89;39.40;98206.31;4966185;28;20833;-78
2022/10/28 10:59:48;;;;;;;3.90;3.10;;;;;;;21.02;39.27;98204.53;4968092;28;20192;-77
2022/10/28 11:02:30;;;;;;;3.97;2.73;;;;;;;21.08;38.83;98212.06;4966901;28;20279;-77
2022/10/28 11:05:02;;;;;;;6.50;3.20;;;;;;;21.08;38.86;98205.94;4966904;28;20501;-77
2022/10/28 11:07:31;;;;;;;6.83;3.13;;;;;;;21.03;38.89;98196.56;4966626;28;20196;-77
2022/10/28 11:09:59;;;;;;;7.73;3.90;;;;;;;21.06;39.09;98187.59;4967982;28;20196;-76
2022/10/28 11:12:30;;;;;;;5.97;3.40;;;;;;;20.90;40.15;98187.78;4967235;28;20232;-76
2022/10/28 11:15:00;;;;;;;5.03;2.90;;;;;;;20.98;39.44;98198.63;4965432;28;20676;-76
2022/10/28 11:17:31;;;;;;;3.80;2.50;;;;;;;21.08;39.00;98200.66;4967833;28;20236;-77
2022/10/28 11:20:23;;;;;;;7.97;3.00;;;;;;;21.09;39.41;98184.75;4966367;28;20684;-79
2022/10/28 11:23:11;;;;;;;3.10;2.30;;;;;;;21.29;38.48;98200.00;4968039;28;20196;-77
2022/10/28 11:25:44;;;;;;;5.07;3.30;;;;;;;21.17;39.29;98186.84;4967645;28;20193;-77
2022/10/28 11:28:32;;;;;;;9.17;4.90;;;;;;;21.28;38.79;98186.94;4965975;28;20544;-77
2022/10/28 11:31:17;;;;;;;7.17;3.10;;;;;;;21.35;38.69;98194.28;4966497;28;20226;-78
2022/10/28 11:34:08;;;;;;;7.47;4.33;;;;;;;21.48;38.35;98189.00;4965603;28;20199;-77
2022/10/28 11:36:54;;;;;;;4.50;2.53;;;;;;;21.18;38.46;98185.91;4966983;28;20225;-77
2022/10/28 11:39:27;;;;;;;4.30;2.80;;;;;;;21.06;38.62;98183.16;4966810;28;20553;-79
2022/10/28 11:42:10;;;;;;;2.90;2.60;;;;;;;21.00;38.84;98175.66;4966548;28;20274;-78
2022/10/28 11:44:47;;;;;;;4.67;3.07;;;;;;;20.78;39.33;98169.34;4966222;28;20184;-77
2022/10/28 11:47:13;;;;;;;7.10;3.63;;;;;;;20.65;39.58;98166.69;4967900;28;20207;-77
2022/10/28 11:50:16;;;;;;;18.57;4.67;;;;;;;20.94;39.57;98160.28;4966700;28;20188;-79
2022/10/28 11:52:52;;;;;;;7.40;2.93;;;;;;;21.05;38.83;98163.06;4967986;28;20223;-76
2022/10/28 11:55:30;;;;;;;12.63;5.53;;;;;;;21.16;38.81;98150.91;4966657;28;20640;-78